Time;durP1;ratioP1;P1;durP2;ratioP2;P2;SDS_P1;SDS_P2;PMS_P1;PMS_P2;Temp;Humidity;BMP_temperature;BMP_pressure;BME280_temperature;BME280_humidity;BME280_pressure;Samples;Min_cycle;Max_cycle;Signal;HPM_P1;HPM_P2
2022/12/27 00:01:28;;;;;;;1.72;1.42;;;;;;;8.25;80.59;100192.43;1913190;93;30445;-72
2022/12/27 00:04:30;;;;;;;3.80;1.70;;;;;;;8.19;80.73;100182.89;1943000;91;27780;-71
2022/12/27 00:07:31;;;;;;;2.72;1.80;;;;;;;8.14;80.75;100176.86;1913172;93;29465;-71
2022/12/27 00:10:33;;;;;;;3.05;1.62;;;;;;;8.12;80.91;100177.39;1913151;93;31162;-71
2022/12/27 00:13:35;;;;;;;2.00;1.50;;;;;;;8.09;80.93;100183.73;1942964;91;32961;-72
2022/12/27 00:16:37;;;;;;;3.27;1.75;;;;;;;8.06;80.98;100192.73;1913119;93;30435;-71
2022/12/27 00:19:39;;;;;;;1.98;1.52;;;;;;;8.02;80.99;100203.13;1944599;91;27746;-70
2022/12/27 00:22:40;;;;;;;4.87;1.70;;;;;;;7.98;80.96;100221.52;1942609;91;28716;-70
2022/12/27 00:25:42;;;;;;;1.40;1.25;;;;;;;7.94;81.02;100213.25;1913180;93;31107;-71
2022/12/27 00:28:45;;;;;;;2.10;0.85;;;;;;;7.90;81.08;100211.63;1944576;91;32958;-70
2022/12/27 00:31:46;;;;;;;3.50;1.35;;;;;;;7.86;81.01;100211.34;1942998;91;30482;-68
2022/12/27 00:34:48;;;;;;;2.98;1.40;;;;;;;7.85;81.04;100217.61;1913180;93;28339;-67
2022/12/27 00:37:50;;;;;;;2.30;1.35;;;;;;;7.81;81.00;100220.87;1943049;91;28512;-70
2022/12/27 00:40:51;;;;;;;1.55;1.45;;;;;;;7.77;80.98;100228.58;1913222;93;31059;-72
2022/12/27 00:43:53;;;;;;;1.95;1.30;;;;;;;7.72;80.93;100231.43;1944461;91;32925;-70
2022/12/27 00:46:55;;;;;;;3.47;1.27;;;;;;;7.69;80.96;100236.87;1942889;91;29659;-72
2022/12/27 00:49:57;;;;;;;3.55;1.15;;;;;;;7.64;80.87;100252.66;1913284;93;27716;-70
2022/12/27 00:52:58;;;;;;;1.80;1.32;;;;;;;7.59;80.85;100246.17;1944565;91;28649;-72
2022/12/27 00:56:03;;;;;;;3.55;1.32;;;;;;;7.56;80.92;100256.46;1942640;91;31903;-70
2022/12/27 00:59:05;;;;;;;3.02;1.22;;;;;;;7.53;80.90;100261.91;1913101;93;33025;-69
2022/12/27 01:02:07;;;;;;;2.15;1.82;;;;;;;7.49;80.82;100267.41;1944585;91;29739;-72
2022/12/27 01:05:09;;;;;;;4.50;1.98;;;;;;;7.45;80.79;100269.34;1942961;91;27729;-73
2022/12/27 01:08:11;;;;;;;7.87;2.02;;;;;;;7.42;80.86;100269.45;1913008;93;28835;-72
2022/12/27 01:11:15;;;;;;;2.75;1.60;;;;;;;7.39;80.89;100280.21;1944545;91;31853;-72
2022/12/27 01:14:17;;;;;;;3.12;1.42;;;;;;;7.36;80.88;100290.53;1942859;91;33791;-72
2022/12/27 01:17:19;;;;;;;3.20;1.52;;;;;;;7.33;80.89;100289.78;1913159;93;30331;-71
2022/12/27 01:20:21;;;;;;;5.10;1.90;;;;;;;7.28;80.86;100288.15;1944597;91;27725;-73
2022/12/27 01:23:24;;;;;;;5.00;1.80;;;;;;;7.25;80.97;100286.92;1942533;91;28847;-70
2022/12/27 01:26:26;;;;;;;2.70;1.47;;;;;;;7.23;81.09;100296.77;1913083;93;31938;-73
2022/12/27 01:29:28;;;;;;;4.40;1.95;;;;;;;7.20;81.09;100300.86;1913093;93;32981;-72
2022/12/27 01:32:33;;;;;;;4.28;2.05;;;;;;;7.18;81.13;100302.73;1944433;91;29611;-73
2022/12/27 01:35:36;;;;;;;3.37;1.82;;;;;;;7.12;81.13;100309.13;1943110;91;27631;-71
2022/12/27 01:38:41;;;;;;;3.45;2.05;;;;;;;7.08;81.17;100310.19;1930890;92;28690;-72
2022/12/27 01:45:24;;;;;;;3.85;1.82;;;;;;;6.98;81.19;100321.62;1944229;91;34055;-73
2022/12/27 01:48:26;;;;;;;3.22;2.00;;;;;;;6.93;81.25;100331.55;1943104;91;30741;-72
2022/12/27 01:51:28;;;;;;;3.85;2.25;;;;;;;6.89;81.39;100332.56;1913243;93;27690;-67
2022/12/27 01:54:30;;;;;;;3.90;2.10;;;;;;;6.87;81.52;100337.55;1943109;91;30042;-73
2022/12/27 01:57:32;;;;;;;2.15;1.95;;;;;;;6.86;81.62;100339.80;1913408;93;31923;-70
2022/12/27 02:00:34;;;;;;;3.90;2.37;;;;;;;6.83;81.66;100334.98;1944742;91;33309;-72
2022/12/27 02:03:41;;;;;;;3.25;2.40;;;;;;;6.82;81.78;100338.56;1943187;91;29507;-71
2022/12/27 02:06:43;;;;;;;2.92;2.50;;;;;;;6.81;81.75;100336.82;1913071;93;27745;-71
2022/12/27 02:09:55;;;;;;;3.10;2.00;;;;;;;6.79;81.75;100335.14;1944658;91;28746;-71
2022/12/27 02:12:58;;;;;;;1.92;1.70;;;;;;;6.76;81.75;100348.55;1944445;91;32357;-71
2022/12/27 02:16:00;;;;;;;3.27;1.82;;;;;;;6.75;81.83;100360.12;1942506;91;34238;-68
2022/12/27 02:19:02;;;;;;;3.37;2.15;;;;;;;6.72;81.80;100370.42;1942464;91;30936;-71
2022/12/27 02:24:01;;;;;;;3.75;1.72;;;;;;;6.67;81.65;100395.86;1938310;91;27674;-71
2022/12/27 02:25:47;;;;;;;4.83;1.20;;;;;;;6.62;81.41;100411.10;1907665;93;29139;-72
2022/12/27 02:29:10;;;;;;;3.87;1.45;;;;;;;6.52;81.11;100424.30;1938040;91;31931;-72
2022/12/27 02:32:41;;;;;;;8.20;1.60;;;;;;;6.43;80.96;100436.09;1938298;91;32461;-67
2022/12/27 02:35:54;;;;;;;5.87;1.60;;;;;;;6.36;80.83;100451.38;1938303;91;29697;-71
2022/12/27 02:38:58;;;;;;;5.50;1.42;;;;;;;6.29;80.72;100472.89;1938427;91;27845;-67
2022/12/27 02:53:02;;;;;;;4.67;1.52;;;;;;;6.02;80.76;100480.72;1938173;91;30850;-69
2022/12/27 03:03:37;;;;;;;5.28;1.95;;;;;;;5.80;80.75;100494.56;1938247;91;32269;-64
2022/12/27 03:07:05;;;;;;;9.98;2.35;;;;;;;5.76;80.75;100495.58;1938013;91;33150;-72
2022/12/27 03:17:11;;;;;;;7.97;1.95;;;;;;;5.61;80.74;100496.84;1888899;94;29357;-70
2022/12/27 03:26:58;;;;;;;7.67;1.60;;;;;;;5.44;80.62;100515.88;1890148;94;29894;-71
2022/12/27 03:33:27;;;;;;;4.90;1.47;;;;;;;5.32;80.75;100521.03;1890077;94;30100;-71
2022/12/27 03:40:18;;;;;;;5.70;1.60;;;;;;;5.23;80.91;100547.80;1890324;94;33494;-68
2022/12/27 03:43:20;;;;;;;9.40;1.85;;;;;;;5.17;80.89;100551.48;1889950;94;30762;-71
2022/12/27 03:46:33;;;;;;;7.30;2.45;;;;;;;5.10;80.85;100565.83;1890202;94;27789;-70
2022/12/27 03:50:04;;;;;;;5.33;2.12;;;;;;;5.05;80.92;100575.20;1890185;94;28687;-70
2022/12/27 03:53:31;;;;;;;12.03;3.35;;;;;;;4.98;81.08;100579.77;1919712;92;32165;-70
2022/12/27 03:56:33;;;;;;;5.75;1.70;;;;;;;4.91;81.12;100578.18;1913298;93;32838;-69
2022/12/27 03:59:35;;;;;;;5.72;1.40;;;;;;;4.86;81.19;100580.05;1945001;91;30583;-70
2022/12/27 04:02:37;;;;;;;10.68;2.33;;;;;;;4.80;81.18;100588.16;1943151;91;27728;-70
2022/12/27 04:05:39;;;;;;;8.43;2.00;;;;;;;4.75;81.20;100595.34;1913011;93;29654;-71
2022/12/27 04:35:25;;;;;;;7.53;2.30;;;;;;;3.95;81.33;100654.28;1937163;91;28099;-71
2022/12/27 04:38:27;;;;;;;8.53;1.87;;;;;;;3.89;81.37;100648.60;1906160;93;29210;-71
2022/12/27 04:54:57;;;;;;;13.25;1.67;;;;;;;3.56;81.28;100683.14;1917418;92;29562;-70
2022/12/27 04:57:59;;;;;;;8.63;1.87;;;;;;;3.48;81.24;100693.84;1917526;92;31700;-69
2022/12/27 05:04:24;;;;;;;6.00;1.52;;;;;;;3.37;81.20;100698.42;1917418;92;30905;-71
2022/12/27 05:14:12;;;;;;;10.55;1.90;;;;;;;3.19;81.20;100723.77;1917454;92;32336;-72
2022/12/27 05:17:13;;;;;;;14.33;2.15;;;;;;;3.14;81.20;100723.41;1905966;92;32990;-71
2022/12/27 05:20:15;;;;;;;8.35;2.08;;;;;;;3.09;81.18;100727.88;1905763;93;30157;-72
2022/12/27 05:26:39;;;;;;;11.12;1.82;;;;;;;2.97;81.18;100743.47;1913099;92;29943;-70
2022/12/27 05:29:44;;;;;;;8.53;1.67;;;;;;;2.93;81.20;100749.22;1912937;93;32169;-70
2022/12/27 05:32:44;;;;;;;7.40;1.92;;;;;;;2.88;81.18;100755.89;1942857;91;32959;-71
2022/12/27 05:35:46;;;;;;;6.55;2.00;;;;;;;2.84;81.21;100761.23;1912908;93;30826;-71
2022/12/27 05:38:49;;;;;;;11.15;1.95;;;;;;;2.79;81.19;100765.26;1942746;91;27725;-71
2022/12/27 05:41:51;;;;;;;11.85;2.15;;;;;;;2.75;81.25;100760.88;1913344;93;29064;-71
2022/12/27 05:44:53;;;;;;;9.75;1.82;;;;;;;2.70;81.26;100762.26;1942713;91;32413;-71
2022/12/27 05:47:54;;;;;;;13.90;2.22;;;;;;;2.66;81.29;100771.53;1913149;93;34150;-72
2022/12/27 05:50:57;;;;;;;8.68;2.00;;;;;;;2.63;81.39;100782.17;1912935;93;30844;-71
2022/12/27 05:53:59;;;;;;;15.90;2.65;;;;;;;2.60;81.43;100778.22;1944626;91;27779;-70
2022/12/27 05:57:01;;;;;;;8.03;2.72;;;;;;;2.57;81.48;100786.61;1943022;91;29917;-70
2022/12/27 06:00:05;;;;;;;9.98;2.22;;;;;;;2.55;81.53;100788.39;1913273;93;31862;-70
2022/12/27 06:03:07;;;;;;;9.15;2.10;;;;;;;2.54;81.61;100782.67;1944551;91;33778;-72
2022/12/27 06:06:10;;;;;;;7.67;1.92;;;;;;;2.53;81.65;100791.95;1942661;91;30493;-73
2022/12/27 06:09:12;;;;;;;16.85;2.83;;;;;;;2.52;81.67;100796.34;1913266;93;27768;-70
2022/12/27 06:12:13;;;;;;;8.88;2.05;;;;;;;2.53;81.79;100800.75;1913337;93;29028;-72
2022/12/27 06:15:15;;;;;;;12.63;2.20;;;;;;;2.55;81.91;100801.61;1913377;93;31442;-70
2022/12/27 06:18:17;;;;;;;11.78;2.05;;;;;;;2.58;82.03;100808.20;1944488;91;33407;-71
2022/12/27 06:21:20;;;;;;;10.68;2.02;;;;;;;2.62;82.11;100807.73;1942985;91;29810;-71
2022/12/27 06:24:22;;;;;;;14.85;2.37;;;;;;;2.66;82.04;100810.78;1907996;92;27787;-70
2022/12/27 06:27:25;;;;;;;17.37;2.87;;;;;;;2.67;81.95;100811.65;1905771;93;29147;-68
2022/12/27 06:30:27;;;;;;;9.05;2.40;;;;;;;2.65;81.87;100817.42;1917381;92;31138;-70
2022/12/27 06:33:29;;;;;;;8.55;2.80;;;;;;;2.64;81.79;100822.28;1917390;92;34248;-66
2022/12/27 06:36:31;;;;;;;12.28;2.70;;;;;;;2.62;81.83;100826.70;1905877;92;30047;-65
2022/12/27 06:39:33;;;;;;;11.18;2.30;;;;;;;2.62;81.94;100828.02;1918015;92;28200;-69
2022/12/27 06:42:36;;;;;;;9.08;2.87;;;;;;;2.64;82.04;100823.60;1917563;92;30132;-74
2022/12/27 06:45:38;;;;;;;10.15;2.70;;;;;;;2.64;81.98;100828.89;1905858;92;31906;-69
2022/12/27 06:48:40;;;;;;;13.10;3.10;;;;;;;2.65;82.01;100824.04;1917389;92;34173;-69
2022/12/27 06:51:42;;;;;;;10.03;3.42;;;;;;;2.66;81.87;100837.23;1905934;92;30619;-69
2022/12/27 06:54:44;;;;;;;13.38;2.90;;;;;;;2.63;81.78;100833.75;1917723;92;27712;-71
2022/12/27 06:57:46;;;;;;;6.83;2.58;;;;;;;2.60;81.68;100841.25;1905940;93;28715;-70
2022/12/27 07:00:48;;;;;;;9.48;2.60;;;;;;;2.56;81.66;100850.98;1917778;92;31570;-74
2022/12/27 07:03:51;;;;;;;13.43;3.27;;;;;;;2.52;81.59;100850.56;1917415;92;34153;-72
2022/12/27 07:06:54;;;;;;;9.03;2.65;;;;;;;2.49;81.62;100860.30;1917410;92;30477;-72
2022/12/27 07:09:56;;;;;;;17.02;2.80;;;;;;;2.46;81.57;100869.56;1905996;92;28269;-71
2022/12/27 07:12:58;;;;;;;13.10;2.47;;;;;;;2.41;81.56;100871.79;1917441;92;29956;-73
2022/12/27 07:15:59;;;;;;;11.43;2.58;;;;;;;2.38;81.69;100873.16;1905866;93;32311;-72
2022/12/27 07:19:02;;;;;;;5.53;1.98;;;;;;;2.36;81.68;100869.64;1917381;92;34359;-69
2022/12/27 07:22:04;;;;;;;12.78;3.22;;;;;;;2.36;81.72;100876.67;1917650;92;30817;-72
2022/12/27 07:25:07;;;;;;;15.95;3.05;;;;;;;2.34;81.67;100887.28;1911836;92;27667;-71
2022/12/27 07:28:09;;;;;;;18.37;3.65;;;;;;;2.33;81.71;100892.13;1913034;93;29655;-69
2022/12/27 07:31:17;;;;;;;17.17;4.03;;;;;;;2.33;81.74;100888.59;1913052;93;31527;-72
2022/12/27 07:34:20;;;;;;;14.15;2.92;;;;;;;2.34;81.75;100902.25;1944659;91;33005;-70
2022/12/27 07:37:22;;;;;;;11.00;2.62;;;;;;;2.35;81.77;100900.03;1943118;91;29654;-66
2022/12/27 07:40:25;;;;;;;10.50;2.77;;;;;;;2.37;81.79;100900.48;1913425;93;27734;-64
2022/12/27 07:43:32;;;;;;;13.15;2.95;;;;;;;2.39;81.80;100905.33;1912928;93;29607;-66
2022/12/27 07:46:34;;;;;;;10.70;2.58;;;;;;;2.42;81.81;100899.13;1944105;91;31245;-68
2022/12/27 07:49:36;;;;;;;11.90;2.90;;;;;;;2.47;81.79;100913.63;1942535;91;34163;-64
2022/12/27 07:52:38;;;;;;;14.25;3.15;;;;;;;2.51;81.76;100914.92;1942736;91;30795;-69
2022/12/27 07:55:40;;;;;;;12.10;2.87;;;;;;;2.58;81.79;100917.97;1942776;91;28233;-69
2022/12/27 07:58:45;;;;;;;8.63;2.83;;;;;;;2.66;81.78;100913.95;1973355;89;29895;-64
2022/12/27 08:02:05;;;;;;;10.53;2.58;;;;;;;2.73;81.70;100914.78;1973300;90;31105;-62
2022/12/27 08:05:08;;;;;;;8.90;2.25;;;;;;;2.80;81.81;100924.45;1973120;90;33030;-67
2022/12/27 08:08:11;;;;;;;13.35;3.25;;;;;;;2.88;81.53;100930.55;1973280;90;29719;-71
2022/12/27 08:11:13;;;;;;;14.18;3.20;;;;;;;2.93;81.51;100926.53;1913285;92;27712;-70
2022/12/27 08:14:15;;;;;;;11.48;2.75;;;;;;;2.98;81.46;100936.64;1913321;93;29517;-67
2022/12/27 08:17:24;;;;;;;10.60;3.02;;;;;;;3.03;81.28;100938.82;1944275;91;32463;-73
2022/12/27 08:20:26;;;;;;;10.05;2.50;;;;;;;3.11;81.27;100936.53;1943149;91;33631;-65
2022/12/27 08:23:28;;;;;;;9.13;2.37;;;;;;;3.17;81.14;100933.84;1911960;93;29245;-67
2022/12/27 08:26:31;;;;;;;13.03;3.52;;;;;;;3.22;81.05;100939.99;1916877;92;27756;-67
2022/12/27 08:29:33;;;;;;;14.00;4.03;;;;;;;3.27;80.81;100942.59;1905490;93;29966;-72
2022/12/27 08:32:35;;;;;;;10.65;3.62;;;;;;;3.32;80.64;100939.44;1916742;92;31970;-69
2022/12/27 08:35:43;;;;;;;14.05;4.10;;;;;;;3.37;80.60;100933.66;1905204;93;34302;-72
2022/12/27 08:38:45;;;;;;;7.40;2.95;;;;;;;3.43;80.37;100941.98;1916973;92;31366;-63
2022/12/27 08:41:48;;;;;;;17.70;4.40;;;;;;;3.48;80.19;100937.06;1917153;92;27663;-64
2022/12/27 08:44:50;;;;;;;10.45;2.60;;;;;;;3.55;80.18;100938.34;1916732;92;29946;-68
2022/12/27 08:47:52;;;;;;;12.10;3.33;;;;;;;3.61;80.06;100945.77;1905493;93;32239;-68
2022/12/27 08:50:54;;;;;;;8.93;3.37;;;;;;;3.67;79.98;100942.17;1916738;92;34255;-73
2022/12/27 08:53:56;;;;;;;11.95;2.67;;;;;;;3.72;79.70;100956.73;1917065;92;30392;-68
2022/12/27 08:56:58;;;;;;;11.95;2.30;;;;;;;3.74;79.47;100953.59;1917212;92;28285;-73
2022/12/27 09:00:00;;;;;;;17.10;2.67;;;;;;;3.81;79.60;100963.23;1916833;92;29553;-73
2022/12/27 09:03:03;;;;;;;6.97;2.90;;;;;;;3.88;79.53;100967.59;1905366;93;31817;-73
2022/12/27 09:06:21;;;;;;;7.25;2.58;;;;;;;3.92;79.51;100956.03;1917127;92;33206;-72
2022/12/27 09:09:23;;;;;;;6.92;1.90;;;;;;;3.98;79.18;100953.76;1905591;93;30432;-65
2022/12/27 09:12:25;;;;;;;8.88;2.02;;;;;;;4.03;79.02;100958.56;1917035;92;27696;-65
2022/12/27 09:15:27;;;;;;;6.87;2.55;;;;;;;4.08;78.91;100968.67;1905331;93;29938;-63
2022/12/27 09:18:29;;;;;;;7.47;2.50;;;;;;;4.14;78.91;100969.52;1916987;92;31732;-71
2022/12/27 09:21:33;;;;;;;19.98;8.55;;;;;;;4.20;78.89;100974.29;1905788;93;34124;-72
2022/12/27 09:24:34;;;;;;;15.45;3.70;;;;;;;4.25;78.83;100969.78;1917646;92;29915;-71
2022/12/27 09:27:37;;;;;;;4.50;2.02;;;;;;;4.31;78.31;100976.78;1907197;93;27703;-68
2022/12/27 09:30:39;;;;;;;13.70;3.80;;;;;;;4.35;78.21;100974.52;1937982;91;29571;-68
2022/12/27 09:33:43;;;;;;;13.10;3.45;;;;;;;4.41;78.30;100974.89;1937993;91;27673;-70
2022/12/27 09:36:46;;;;;;;10.35;2.47;;;;;;;4.47;78.14;100968.18;1937915;91;34295;-68
2022/12/27 09:39:47;;;;;;;7.42;2.52;;;;;;;4.52;77.78;100972.98;1938269;91;29717;-70
2022/12/27 09:43:08;;;;;;;9.45;3.42;;;;;;;4.56;77.64;100966.72;1938196;91;28325;-67
2022/12/27 09:46:18;;;;;;;12.18;4.83;;;;;;;4.62;77.64;100968.87;1938391;91;29104;-71
2022/12/27 09:49:42;;;;;;;5.47;2.35;;;;;;;4.67;77.55;100965.70;1938295;91;31243;-68
2022/12/27 09:53:04;;;;;;;11.03;5.00;;;;;;;4.71;77.29;100976.72;1938223;91;33962;-68
2022/12/27 09:56:08;;;;;;;14.45;5.30;;;;;;;4.78;77.01;100979.69;1949120;91;30840;-68
2022/12/27 09:59:32;;;;;;;9.75;2.45;;;;;;;4.84;77.17;100979.61;1948046;91;27761;-68
2022/12/27 10:02:35;;;;;;;7.80;2.30;;;;;;;4.89;76.91;100990.59;1947838;91;29741;-68
2022/12/27 10:05:38;;;;;;;6.85;2.95;;;;;;;4.96;76.80;100980.31;1947889;91;31199;-68
2022/12/27 10:08:57;;;;;;;6.97;2.22;;;;;;;5.01;76.78;100983.32;1947938;91;33059;-69
2022/12/27 10:12:16;;;;;;;15.23;4.90;;;;;;;5.10;76.60;100987.61;1918233;92;29639;-67
2022/12/27 10:15:54;;;;;;;9.40;2.62;;;;;;;5.16;76.50;100990.18;1918471;92;27730;-67
2022/12/27 10:19:22;;;;;;;8.23;2.40;;;;;;;5.27;76.46;100995.76;1947518;91;30763;-65
2022/12/27 10:22:30;;;;;;;6.58;1.75;;;;;;;5.35;76.00;101000.94;1948010;91;31050;-70
2022/12/27 10:25:33;;;;;;;4.92;2.25;;;;;;;5.33;75.17;100996.53;1918563;92;33164;-70
2022/12/27 10:28:45;;;;;;;7.17;2.33;;;;;;;5.31;75.11;100994.34;1919375;92;30056;-70
2022/12/27 10:31:47;;;;;;;20.27;5.90;;;;;;;5.29;75.26;100992.20;1917984;92;28328;-66
2022/12/27 10:35:01;;;;;;;9.33;2.75;;;;;;;5.31;75.42;100986.37;1942891;91;29550;-70
2022/12/27 10:38:07;;;;;;;9.95;3.90;;;;;;;5.32;75.32;100981.48;1913126;93;31328;-69
2022/12/27 10:42:05;;;;;;;8.48;2.25;;;;;;;5.33;75.30;100987.23;1913408;93;33778;-69
2022/12/27 10:45:35;;;;;;;10.30;2.85;;;;;;;5.37;75.16;100983.20;1942488;91;30937;-65
2022/12/27 10:48:37;;;;;;;9.33;3.90;;;;;;;5.40;74.97;100984.02;1942831;90;27562;-62
2022/12/27 10:51:42;;;;;;;7.60;3.10;;;;;;;5.41;74.84;100983.11;1942431;91;30877;-63
2022/12/27 10:54:53;;;;;;;5.45;2.62;;;;;;;5.42;74.58;100977.36;1942846;91;32451;-65
2022/12/27 10:57:54;;;;;;;7.58;2.65;;;;;;;5.44;74.18;100971.58;1942699;91;33135;-64
2022/12/27 11:00:57;;;;;;;11.25;2.67;;;;;;;5.47;74.25;100977.70;1942575;91;30528;-69
2022/12/27 11:04:19;;;;;;;5.85;2.60;;;;;;;5.51;74.31;100977.66;1942822;91;27551;-67
2022/12/27 11:07:21;;;;;;;7.97;1.85;;;;;;;5.54;74.08;100969.64;1942494;91;29588;-67
2022/12/27 11:10:26;;;;;;;7.22;1.75;;;;;;;5.58;73.71;100968.22;1942440;91;31943;-62
2022/12/27 11:13:28;;;;;;;5.00;2.00;;;;;;;5.61;73.58;100962.85;1942380;91;34192;-61
2022/12/27 11:16:31;;;;;;;6.65;1.77;;;;;;;5.64;73.43;100956.59;1942709;91;29653;-62
2022/12/27 11:19:34;;;;;;;9.70;2.27;;;;;;;5.66;73.43;100957.44;1942481;91;28506;-68
2022/12/27 11:22:53;;;;;;;15.78;2.45;;;;;;;5.69;73.39;100960.48;1943461;91;29979;-70
2022/12/27 11:26:01;;;;;;;8.15;2.70;;;;;;;5.73;73.42;100964.38;1875974;93;30870;-68
2022/12/27 11:29:03;;;;;;;7.47;2.15;;;;;;;5.80;73.46;100969.59;1876499;94;33848;-67
2022/12/27 11:32:07;;;;;;;4.67;2.35;;;;;;;5.80;73.03;100975.77;1876262;94;31845;-69
2022/12/27 11:35:18;;;;;;;6.65;2.92;;;;;;;5.82;72.79;100982.41;1876637;94;27790;-63
2022/12/27 11:38:30;;;;;;;9.53;2.22;;;;;;;5.86;73.13;100982.31;1876660;94;29512;-65
2022/12/27 11:41:51;;;;;;;7.15;2.25;;;;;;;5.93;72.43;100984.40;1876643;94;32003;-69
2022/12/27 11:45:21;;;;;;;9.63;2.02;;;;;;;6.00;72.75;100991.41;1876203;94;35207;-66
2022/12/27 11:48:30;;;;;;;4.08;1.80;;;;;;;6.04;72.66;100990.41;1876902;94;30051;-67
2022/12/27 11:52:13;;;;;;;7.80;2.33;;;;;;;6.08;72.34;101001.42;1876515;94;27755;-68
2022/12/27 11:55:49;;;;;;;6.25;2.17;;;;;;;6.16;72.51;100995.08;1828339;97;28882;-70
2022/12/27 11:59:26;;;;;;;5.55;1.90;;;;;;;6.23;72.37;100999.36;1828295;97;31685;-68
2022/12/27 12:03:17;;;;;;;3.27;1.90;;;;;;;6.38;72.47;100996.84;1825040;96;33371;-68
2022/12/27 12:06:29;;;;;;;7.47;2.35;;;;;;;6.50;72.23;100985.07;1838145;96;29472;-67
2022/12/27 12:10:20;;;;;;;3.95;2.08;;;;;;;6.61;71.90;100991.02;1838520;96;27752;-63
2022/12/27 12:13:53;;;;;;;3.67;1.92;;;;;;;6.69;71.78;100988.19;1838357;96;28701;-68
2022/12/27 12:17:26;;;;;;;7.58;2.47;;;;;;;6.75;71.67;100981.41;1838004;95;31523;-67
2022/12/27 12:20:51;;;;;;;7.42;1.67;;;;;;;6.80;71.26;100989.28;1837849;96;34269;-64
2022/12/27 12:24:13;;;;;;;9.18;2.10;;;;;;;6.82;71.03;100979.48;1838270;96;35194;-70
2022/12/27 12:27:27;;;;;;;10.45;2.20;;;;;;;6.87;70.81;100981.55;1913586;92;27905;-71
2022/12/27 12:30:55;;;;;;;3.50;1.72;;;;;;;6.89;70.69;100976.21;1905550;93;29259;-67
2022/12/27 12:34:25;;;;;;;5.72;3.15;;;;;;;6.89;70.44;100988.20;1917124;92;32237;-61
2022/12/27 12:37:32;;;;;;;10.58;2.40;;;;;;;6.90;70.53;100990.81;1914355;92;33222;-72
2022/12/27 12:40:58;;;;;;;6.85;2.45;;;;;;;6.90;70.16;100981.48;1917067;92;29646;-67
2022/12/27 12:44:37;;;;;;;4.50;1.50;;;;;;;6.93;70.29;100981.89;1905681;93;27648;-68
2022/12/27 12:48:09;;;;;;;6.60;2.42;;;;;;;6.91;69.37;100984.58;1918211;92;29909;-71
2022/12/27 12:51:31;;;;;;;7.12;2.33;;;;;;;6.88;69.87;100985.11;1918390;92;31534;-71
2022/12/27 12:55:08;;;;;;;5.58;2.08;;;;;;;6.82;69.49;100980.81;1918041;92;33875;-71
2022/12/27 12:58:27;;;;;;;8.25;2.10;;;;;;;6.76;69.41;100992.48;1888761;94;31640;-70
2022/12/27 13:01:40;;;;;;;7.85;1.80;;;;;;;6.65;69.39;100999.37;1912670;93;27702;-68
2022/12/27 13:05:18;;;;;;;6.97;2.00;;;;;;;6.54;69.04;100998.27;1895585;93;29763;-70
2022/12/27 13:08:44;;;;;;;4.47;1.95;;;;;;;6.48;69.07;101005.05;1910300;93;32197;-66
2022/12/27 13:12:07;;;;;;;;;;;;;;;6.46;69.14;101004.20;1912977;93;32966;-69
2022/12/27 13:15:40;;;;;;;10.72;4.72;;;;;;;6.44;69.19;101001.16;1910391;93;29647;-71
2022/12/27 13:18:50;;;;;;;6.90;3.67;;;;;;;6.38;68.96;101008.83;1910442;93;27815;-67
2022/12/27 13:22:09;;;;;;;8.43;4.75;;;;;;;6.36;69.17;101010.63;1910648;93;28719;-64
2022/12/27 13:25:53;;;;;;;10.82;3.77;;;;;;;6.34;69.30;101002.70;1877596;94;31107;-70
2022/12/27 13:29:30;;;;;;;23.25;12.03;;;;;;;6.32;68.98;101006.27;1875872;94;33475;-61
2022/12/27 13:33:03;;;;;;;10.60;4.30;;;;;;;6.29;68.58;101023.19;1862074;95;29775;-67
2022/12/27 13:36:28;;;;;;;10.03;3.15;;;;;;;6.26;68.98;101031.70;1900491;93;27760;-64
2022/12/27 13:39:58;;;;;;;18.43;7.87;;;;;;;6.22;68.86;101028.20;1834502;96;29893;-65
2022/12/27 13:43:11;;;;;;;7.12;2.55;;;;;;;6.17;68.48;101033.62;1853571;96;31241;-62
2022/12/27 13:46:34;;;;;;;9.08;4.10;;;;;;;6.15;68.86;101035.42;1853377;96;33043;-61
2022/12/27 13:49:50;;;;;;;6.80;2.80;;;;;;;6.13;69.01;101029.72;1853418;96;29717;-71
2022/12/27 13:53:35;;;;;;;10.58;4.53;;;;;;;6.09;68.79;101024.92;1853841;96;27818;-68
2022/12/27 13:57:06;;;;;;;9.15;3.65;;;;;;;6.05;68.91;101027.21;1852941;96;29994;-62
2022/12/27 14:00:16;;;;;;;8.38;2.50;;;;;;;6.03;69.08;101046.31;1853261;96;31958;-63
2022/12/27 14:03:35;;;;;;;5.67;2.20;;;;;;;5.99;68.98;101044.57;1853639;96;33049;-69
2022/12/27 14:06:58;;;;;;;11.50;2.47;;;;;;;5.96;69.00;101054.83;1857667;93;29730;-66
2022/12/27 14:10:10;;;;;;;3.12;2.12;;;;;;;5.94;69.08;101064.61;1913134;93;27775;-70
2022/12/27 14:13:28;;;;;;;9.88;2.50;;;;;;;5.91;69.20;101073.53;1893026;93;44596;-68
2022/12/27 14:17:23;;;;;;;8.73;3.20;;;;;;;5.90;69.08;101060.24;1942595;91;32407;-63
2022/12/27 14:20:56;;;;;;;10.75;3.00;;;;;;;5.88;69.06;101071.36;1972809;90;28832;-62
2022/12/27 14:24:31;;;;;;;11.03;3.42;;;;;;;5.83;69.06;101077.23;1973131;90;29792;-65
2022/12/27 14:28:13;;;;;;;4.50;2.22;;;;;;;5.80;69.38;101088.77;1937792;91;28382;-64
2022/12/27 14:31:41;;;;;;;6.85;3.17;;;;;;;5.77;69.10;101088.85;1937088;91;29195;-63
2022/12/27 14:35:07;;;;;;;6.47;2.90;;;;;;;5.73;69.23;101094.65;1937134;91;32543;-68
2022/12/27 14:38:56;;;;;;;8.90;4.60;;;;;;;5.70;69.15;101100.05;1937356;91;32943;-69
2022/12/27 14:42:22;;;;;;;5.22;2.83;;;;;;;5.67;69.53;101095.20;1937559;91;30075;-68
2022/12/27 14:46:13;;;;;;;7.70;3.35;;;;;;;5.62;69.40;101110.80;1937474;91;28087;-67
2022/12/27 14:49:41;;;;;;;9.00;3.40;;;;;;;5.59;69.46;101110.84;1937308;91;28753;-65
2022/12/27 14:53:15;;;;;;;7.50;3.77;;;;;;;5.56;69.55;101109.56;1937167;91;32310;-62
2022/12/27 14:56:49;;;;;;;6.30;3.10;;;;;;;5.54;69.64;101110.49;1908682;93;33387;-62
2022/12/27 15:00:19;;;;;;;5.83;3.10;;;;;;;5.48;69.54;101120.74;1882655;94;30978;-70
2022/12/27 15:03:44;;;;;;;7.95;2.95;;;;;;;5.46;69.72;101118.59;1899020;93;27804;-70
2022/12/27 15:07:17;;;;;;;9.10;4.42;;;;;;;5.44;69.72;101127.89;1918390;92;29594;-68
2022/12/27 15:10:55;;;;;;;7.72;2.98;;;;;;;5.41;69.59;101122.62;1918577;92;32256;-69
2022/12/27 15:14:18;;;;;;;10.95;3.17;;;;;;;5.40;69.57;101117.34;1918505;92;32921;-70
2022/12/27 15:17:43;;;;;;;7.30;3.52;;;;;;;5.36;69.80;101116.52;1918702;92;30900;-68
2022/12/27 15:21:01;;;;;;;9.93;4.00;;;;;;;5.37;69.82;101116.05;1919054;92;27830;-69
2022/12/27 15:24:24;;;;;;;9.20;4.35;;;;;;;5.35;69.78;101117.84;1880160;94;29928;-70
2022/12/27 15:28:06;;;;;;;18.67;5.03;;;;;;;5.35;69.84;101113.86;1886392;94;31959;-67
2022/12/27 15:31:25;;;;;;;9.30;4.25;;;;;;;5.33;69.95;101114.76;1923928;91;33665;-65
2022/12/27 15:35:18;;;;;;;14.10;6.12;;;;;;;5.30;69.91;101108.63;1938923;91;29710;-65
2022/12/27 15:38:49;;;;;;;12.23;5.15;;;;;;;5.27;69.89;101125.50;1941294;91;27892;-67
2022/12/27 15:42:16;;;;;;;11.57;6.00;;;;;;;5.27;69.95;101125.50;1941533;91;28676;-69
2022/12/27 15:45:39;;;;;;;11.85;4.12;;;;;;;5.25;69.95;101119.33;1941273;91;31119;-69
2022/12/27 15:49:21;;;;;;;11.03;4.10;;;;;;;5.25;69.82;101123.74;1941492;91;32981;-67
2022/12/27 15:52:47;;;;;;;9.58;4.03;;;;;;;5.24;69.87;101119.33;1941219;91;30492;-67
2022/12/27 15:56:06;;;;;;;11.45;4.42;;;;;;;5.24;69.79;101117.56;1941786;91;27938;-69
2022/12/27 15:59:28;;;;;;;7.03;3.90;;;;;;;5.23;69.79;101107.84;1941327;91;29975;-69
2022/12/27 16:02:44;;;;;;;9.08;3.50;;;;;;;5.23;69.75;101105.18;1830375;95;32419;-67
2022/12/27 16:05:50;;;;;;;9.08;3.72;;;;;;;5.23;69.57;101104.28;1830567;97;33781;-67
2022/12/27 16:09:00;;;;;;;8.53;3.87;;;;;;;5.24;69.55;101112.69;1831604;97;29647;-67
2022/12/27 16:12:12;;;;;;;8.85;4.05;;;;;;;5.25;69.76;101103.39;1829918;97;27761;-69
2022/12/27 16:15:48;;;;;;;7.00;3.95;;;;;;;5.27;69.68;101115.30;1832731;97;29774;-70
2022/12/27 16:19:04;;;;;;;6.92;3.40;;;;;;;5.25;69.59;101121.09;1832937;97;31102;-70
2022/12/27 16:22:31;;;;;;;9.70;3.72;;;;;;;5.22;69.64;101122.45;1832497;97;33876;-68
2022/12/27 16:25:40;;;;;;;6.25;3.55;;;;;;;5.20;69.65;101124.28;1832767;97;29127;-69
2022/12/27 16:29:13;;;;;;;10.03;3.67;;;;;;;5.20;69.69;101133.58;1832636;97;28263;-69
2022/12/27 16:32:19;;;;;;;10.98;3.12;;;;;;;5.20;69.58;101126.47;1832874;97;29357;-65
2022/12/27 16:35:22;;;;;;;5.47;3.10;;;;;;;5.19;69.79;101126.04;1832834;97;31114;-66
2022/12/27 16:38:25;;;;;;;7.50;4.97;;;;;;;5.20;69.73;101124.28;1855120;89;33043;-65